Time;durP1;ratioP1;P1;durP2;ratioP2;P2;SDS_P1;SDS_P2;PMS_P1;PMS_P2;Temp;Humidity;BMP_temperature;BMP_pressure;BME280_temperature;BME280_humidity;BME280_pressure;Samples;Min_cycle;Max_cycle;Signal;HPM_P1;HPM_P2
2023/10/23 00:01:44;;;;;;;8.15;4.15;;;;;;;6.85;100.00;101257.09;4948404;28;20047;-75
2023/10/23 00:04:12;;;;;;;4.50;4.07;;;;;;;6.85;100.00;101257.97;4921743;29;20489;-75
2023/10/23 00:06:40;;;;;;;5.15;4.35;;;;;;;6.86;100.00;101259.75;4919865;29;20051;-75
2023/10/23 00:09:07;;;;;;;9.65;5.00;;;;;;;6.87;100.00;101265.88;4917476;29;20478;-77
2023/10/23 00:11:34;;;;;;;7.00;4.32;;;;;;;6.88;100.00;101262.41;4934279;29;20047;-77
2023/10/23 00:14:02;;;;;;;7.18;4.63;;;;;;;6.89;100.00;101258.94;4889356;29;20047;-76
2023/10/23 00:16:29;;;;;;;9.40;4.60;;;;;;;6.88;100.00;101258.06;4930733;29;20556;-76
2023/10/23 00:18:57;;;;;;;6.18;5.13;;;;;;;6.89;100.00;101256.31;4932443;29;20054;-76
2023/10/23 00:21:24;;;;;;;6.15;4.85;;;;;;;6.87;100.00;101258.91;4939181;28;20816;-76
2023/10/23 00:23:52;;;;;;;8.00;4.55;;;;;;;6.88;100.00;101265.03;4932675;29;20058;-75
2023/10/23 00:26:19;;;;;;;6.10;4.70;;;;;;;6.86;100.00;101262.34;4946076;29;20051;-76
2023/10/23 00:28:52;;;;;;;10.52;5.35;;;;;;;6.87;100.00;101263.28;4874058;29;20055;-76
2023/10/23 00:31:19;;;;;;;6.40;4.57;;;;;;;6.86;100.00;101267.59;4914270;29;20855;-76
2023/10/23 00:33:47;;;;;;;7.82;5.00;;;;;;;6.84;100.00;101266.69;4916795;29;20464;-76
2023/10/23 00:36:14;;;;;;;8.68;5.68;;;;;;;6.86;100.00;101261.47;4921381;29;20531;-76
2023/10/23 00:38:42;;;;;;;15.77;6.00;;;;;;;6.86;100.00;101264.97;4934710;29;20047;-76
2023/10/23 00:41:10;;;;;;;5.57;5.03;;;;;;;6.85;100.00;101268.47;4899413;29;20070;-75
2023/10/23 00:43:37;;;;;;;8.90;5.65;;;;;;;6.84;100.00;101266.69;4928173;29;20118;-76
2023/10/23 00:46:12;;;;;;;7.53;5.25;;;;;;;6.82;100.00;101278.84;4905428;28;20048;-75
2023/10/23 00:48:40;;;;;;;13.00;5.43;;;;;;;6.79;100.00;101273.56;4932333;29;20055;-75
2023/10/23 00:51:12;;;;;;;8.55;5.93;;;;;;;6.78;100.00;101280.50;4913351;29;20058;-75
2023/10/23 00:53:42;;;;;;;8.73;5.65;;;;;;;6.78;100.00;101279.63;4932028;29;20055;-75
2023/10/23 00:56:11;;;;;;;9.20;6.43;;;;;;;6.78;100.00;101279.63;4896495;29;20052;-75
2023/10/23 00:58:42;;;;;;;12.38;6.95;;;;;;;6.79;100.00;101289.28;4917232;29;20047;-75
2023/10/23 01:01:13;;;;;;;10.20;6.53;;;;;;;6.78;100.00;101284.88;4887849;29;20055;-75
2023/10/23 01:03:43;;;;;;;10.68;5.78;;;;;;;6.78;100.00;101293.59;4921235;29;20291;-76
2023/10/23 01:06:12;;;;;;;11.23;6.93;;;;;;;6.79;100.00;101294.50;4940489;28;20485;-76
2023/10/23 01:08:41;;;;;;;11.73;6.82;;;;;;;6.79;100.00;101294.50;4949151;28;20505;-76
2023/10/23 01:11:09;;;;;;;11.63;6.53;;;;;;;6.78;100.00;101290.09;4914699;29;20057;-75
2023/10/23 01:13:38;;;;;;;10.43;6.43;;;;;;;6.78;100.00;101287.47;4930495;29;20055;-75
2023/10/23 01:16:05;;;;;;;9.07;6.10;;;;;;;6.77;100.00;101290.97;4888262;29;20051;-75
2023/10/23 01:18:33;;;;;;;12.38;6.82;;;;;;;6.77;100.00;101290.97;4914690;29;20051;-76
2023/10/23 01:21:01;;;;;;;9.77;7.05;;;;;;;6.76;100.00;101287.44;4921265;28;20050;-76
2023/10/23 01:23:34;;;;;;;12.98;6.50;;;;;;;6.74;100.00;101286.53;4924701;29;20389;-75
2023/10/23 01:26:02;;;;;;;9.00;6.57;;;;;;;6.75;100.00;101287.44;4944188;29;20058;-75
2023/10/23 01:28:30;;;;;;;12.75;6.53;;;;;;;6.73;100.00;101284.75;4930350;29;20062;-75
2023/10/23 01:30:57;;;;;;;8.18;6.63;;;;;;;6.74;100.00;101283.03;4946356;29;20043;-76
2023/10/23 01:33:25;;;;;;;7.97;6.70;;;;;;;6.72;100.00;101282.09;4893466;29;20456;-76
2023/10/23 01:35:52;;;;;;;10.82;7.13;;;;;;;6.71;100.00;101290.78;4931341;29;20132;-76
2023/10/23 01:38:20;;;;;;;9.15;6.35;;;;;;;6.72;100.00;101289.94;4888095;29;20054;-75
2023/10/23 01:40:47;;;;;;;13.43;7.50;;;;;;;6.71;100.00;101296.03;4949998;29;20043;-76
2023/10/23 01:43:15;;;;;;;12.18;6.78;;;;;;;6.70;100.00;101300.38;4924337;29;20063;-76
2023/10/23 01:45:42;;;;;;;8.55;7.28;;;;;;;6.70;100.00;101299.50;4934846;29;20419;-75
2023/10/23 01:48:10;;;;;;;10.45;7.32;;;;;;;6.68;100.00;101296.84;4892606;29;20528;-76
2023/10/23 01:50:38;;;;;;;16.92;7.72;;;;;;;6.66;100.00;101295.03;4949545;29;20054;-76
2023/10/23 01:53:08;;;;;;;14.27;6.95;;;;;;;6.64;100.00;101303.72;4898769;29;20032;-75
2023/10/23 01:55:36;;;;;;;8.20;6.00;;;;;;;6.59;100.00;101294.84;4927177;29;20054;-76
2023/10/23 01:58:04;;;;;;;8.27;5.97;;;;;;;6.55;100.00;101295.63;4898713;29;20540;-76
2023/10/23 02:00:32;;;;;;;8.55;5.78;;;;;;;6.51;100.00;101300.75;4898828;29;20047;-76
2023/10/23 02:02:59;;;;;;;12.30;6.57;;;;;;;6.47;100.00;101294.53;4891653;29;20039;-75
2023/10/23 02:05:27;;;;;;;10.27;6.45;;;;;;;6.47;100.00;101304.13;4879299;29;20779;-76
2023/10/23 02:07:55;;;;;;;8.02;7.10;;;;;;;6.46;100.00;101302.34;4912202;29;20417;-75
2023/10/23 02:10:23;;;;;;;9.25;7.38;;;;;;;6.44;100.00;101297.06;4918935;29;20044;-76
2023/10/23 02:12:50;;;;;;;12.95;7.82;;;;;;;6.43;100.00;101295.31;4947559;29;20052;-76
2023/10/23 02:15:18;;;;;;;9.57;7.00;;;;;;;6.43;100.00;101295.31;4920141;29;20057;-76
2023/10/23 02:17:47;;;;;;;12.20;7.72;;;;;;;6.43;100.00;101298.81;4913644;29;20056;-75
2023/10/23 02:20:15;;;;;;;11.57;6.65;;;;;;;6.41;100.00;101303.13;4891715;29;20066;-76
2023/10/23 02:22:42;;;;;;;12.07;7.82;;;;;;;6.41;100.00;101304.84;4900652;29;20047;-76
2023/10/23 02:25:10;;;;;;;14.85;7.50;;;;;;;6.42;100.00;101317.09;4923929;29;20051;-76
2023/10/23 02:27:37;;;;;;;10.43;7.20;;;;;;;6.41;100.00;101307.47;4934570;29;20051;-77
2023/10/23 02:30:07;;;;;;;10.35;8.55;;;;;;;6.38;100.00;101313.50;4934579;29;20059;-76
2023/10/23 02:32:34;;;;;;;14.25;8.07;;;;;;;6.39;100.00;101314.38;4902619;29;20059;-76
2023/10/23 02:35:02;;;;;;;26.45;9.50;;;;;;;6.40;100.00;101316.16;4899587;29;20051;-76
2023/10/23 02:37:29;;;;;;;11.30;8.32;;;;;;;6.40;100.00;101313.53;4932482;29;20046;-76
2023/10/23 02:39:57;;;;;;;16.30;9.60;;;;;;;6.40;100.00;101326.63;4912894;29;20066;-76
2023/10/23 02:42:25;;;;;;;11.68;9.20;;;;;;;6.40;100.00;101317.03;4930776;29;20054;-76
2023/10/23 02:44:53;;;;;;;12.68;9.32;;;;;;;6.40;100.00;101324.88;4935694;29;20039;-76
2023/10/23 02:47:20;;;;;;;15.68;8.40;;;;;;;6.38;100.00;101318.72;4948543;29;20047;-76
2023/10/23 02:49:47;;;;;;;17.02;8.55;;;;;;;6.37;100.00;101330.06;4895472;29;20055;-76
2023/10/23 02:52:15;;;;;;;9.38;7.95;;;;;;;6.35;100.00;101323.91;4931921;29;20047;-76
2023/10/23 02:54:42;;;;;;;10.77;7.82;;;;;;;6.32;100.00;101331.66;4919633;29;20071;-76
2023/10/23 02:57:10;;;;;;;9.95;7.88;;;;;;;6.30;100.00;101335.09;4932330;29;20043;-76
2023/10/23 02:59:38;;;;;;;10.73;8.52;;;;;;;6.29;100.00;101341.13;4933627;29;20071;-76
2023/10/23 03:02:06;;;;;;;12.40;8.77;;;;;;;6.29;100.00;101335.91;4917305;29;20062;-76
2023/10/23 03:04:33;;;;;;;15.70;9.20;;;;;;;6.29;100.00;101333.28;4875835;28;20047;-76
2023/10/23 03:07:00;;;;;;;19.13;9.68;;;;;;;6.30;100.00;101335.97;4942262;29;20504;-76
2023/10/23 03:09:28;;;;;;;10.48;8.70;;;;;;;6.28;100.00;101329.78;4899778;29;20070;-76
2023/10/23 03:11:55;;;;;;;16.20;9.10;;;;;;;6.27;100.00;101333.25;4892842;29;20062;-76
2023/10/23 03:14:22;;;;;;;13.23;9.30;;;;;;;6.25;100.00;101330.56;4930979;29;20055;-76
2023/10/23 03:16:50;;;;;;;11.70;9.00;;;;;;;6.25;100.00;101335.81;4932993;29;20054;-76
2023/10/23 03:19:19;;;;;;;15.75;9.43;;;;;;;6.23;100.00;101334.00;4915160;29;20047;-76
2023/10/23 03:21:48;;;;;;;14.73;9.45;;;;;;;6.21;100.00;101336.56;4890893;29;20062;-76
2023/10/23 03:24:15;;;;;;;17.95;9.70;;;;;;;6.21;100.00;101335.69;4915206;29;20039;-76
2023/10/23 03:26:43;;;;;;;18.25;10.52;;;;;;;6.19;100.00;101340.88;4941285;28;20388;-76
2023/10/23 03:29:10;;;;;;;14.70;9.60;;;;;;;6.19;100.00;101333.03;4931958;29;20059;-76
2023/10/23 03:31:38;;;;;;;11.40;9.15;;;;;;;6.19;100.00;101351.34;4950169;29;20043;-76
2023/10/23 03:34:05;;;;;;;17.23;10.05;;;;;;;6.16;100.00;101335.56;4916868;29;20050;-76
2023/10/23 03:36:33;;;;;;;14.70;9.13;;;;;;;6.16;100.00;101332.97;4888195;29;20051;-77
2023/10/23 03:39:01;;;;;;;17.40;9.85;;;;;;;6.16;100.00;101345.13;4915879;29;20054;-77
2023/10/23 03:41:28;;;;;;;15.88;11.10;;;;;;;6.16;100.00;101348.66;4924614;29;20047;-77
2023/10/23 03:43:56;;;;;;;20.85;11.32;;;;;;;6.17;100.00;101353.03;4907594;29;20051;-76
2023/10/23 03:46:23;;;;;;;15.98;10.98;;;;;;;6.17;100.00;101353.03;4899178;29;20047;-76
2023/10/23 03:48:52;;;;;;;21.23;11.48;;;;;;;6.19;100.00;101360.94;4951137;29;20050;-76
2023/10/23 03:51:19;;;;;;;18.05;11.43;;;;;;;6.19;100.00;101364.44;4875388;28;20623;-76
2023/10/23 03:53:46;;;;;;;18.25;13.15;;;;;;;6.20;100.00;101366.22;4933953;29;20070;-76
2023/10/23 03:56:14;;;;;;;15.98;10.90;;;;;;;6.20;100.00;101371.44;4930949;29;20058;-76
2023/10/23 03:58:43;;;;;;;19.17;11.27;;;;;;;6.20;100.00;101366.22;4923390;29;20052;-76
2023/10/23 04:01:12;;;;;;;19.85;11.82;;;;;;;6.19;100.00;101372.28;4920993;28;20483;-76
2023/10/23 04:03:39;;;;;;;15.30;11.10;;;;;;;6.19;100.00;101374.03;4922176;29;20058;-76
2023/10/23 04:06:07;;;;;;;15.35;11.23;;;;;;;6.17;100.00;101365.25;4890886;28;20059;-77
2023/10/23 04:08:34;;;;;;;19.77;11.63;;;;;;;6.16;100.00;101374.81;4901526;29;20564;-76
2023/10/23 04:11:03;;;;;;;19.73;11.55;;;;;;;6.15;100.00;101362.56;4930307;29;20054;-76
2023/10/23 04:13:34;;;;;;;16.98;11.20;;;;;;;6.16;100.00;101374.81;4937023;28;21121;-76
2023/10/23 04:16:02;;;;;;;14.82;10.02;;;;;;;6.14;100.00;101371.25;4931386;29;20047;-76
2023/10/23 04:18:30;;;;;;;16.20;10.52;;;;;;;6.11;100.00;101378.16;4913496;29;20066;-75
2023/10/23 04:21:05;;;;;;;13.07;9.27;;;;;;;6.08;100.00;101376.31;4885572;29;20051;-75
2023/10/23 04:23:33;;;;;;;11.10;8.73;;;;;;;6.04;100.00;101375.31;4874195;29;20506;-77
2023/10/23 04:26:01;;;;;;;12.43;9.13;;;;;;;6.02;100.00;101370.91;4896688;29;20488;-75
2023/10/23 04:28:30;;;;;;;11.13;9.00;;;;;;;5.99;100.00;101381.25;4911038;28;20058;-75
2023/10/23 04:30:57;;;;;;;19.10;9.25;;;;;;;5.94;100.00;101365.41;4932041;29;20424;-75
2023/10/23 04:33:27;;;;;;;9.02;8.13;;;;;;;5.89;100.00;101374.81;4906543;29;20055;-75
2023/10/23 04:35:56;;;;;;;10.73;7.40;;;;;;;5.85;100.00;101376.47;4949239;29;20485;-76
2023/10/23 04:38:26;;;;;;;14.75;8.45;;;;;;;5.81;100.00;101379.81;4888775;29;20039;-76
2023/10/23 04:40:54;;;;;;;;;;;;;;;5.76;100.00;101393.59;4924030;29;20062;-76
2023/10/23 04:43:22;;;;;;;10.02;7.88;;;;;;;5.73;100.00;101385.63;4911711;29;19926;-76
2023/10/23 04:45:52;;;;;;;8.60;7.72;;;;;;;5.70;100.00;101391.69;4905806;29;20054;-76
2023/10/23 04:48:20;;;;;;;;;;;;;;;5.66;100.00;101385.47;4918443;29;20393;-75
2023/10/23 04:50:47;;;;;;;10.88;8.07;;;;;;;5.64;100.00;101376.69;4930673;29;19926;-76
2023/10/23 04:53:15;;;;;;;10.63;8.77;;;;;;;5.61;100.00;101386.16;4888988;29;20050;-76
2023/10/23 04:55:42;;;;;;;9.05;8.13;;;;;;;5.60;100.00;101389.63;4921682;28;20059;-75
2023/10/23 04:58:09;;;;;;;9.88;8.40;;;;;;;5.58;100.00;101388.69;4913510;29;20516;-78
2023/10/23 05:00:38;;;;;;;10.63;7.95;;;;;;;5.56;100.00;101391.25;4937121;28;20051;-75
2023/10/23 05:03:06;;;;;;;9.07;8.07;;;;;;;5.56;100.00;101398.22;4916831;29;20428;-75
2023/10/23 05:05:38;;;;;;;10.82;9.35;;;;;;;5.56;100.00;101396.47;4929763;29;20069;-77
2023/10/23 05:08:05;;;;;;;10.90;8.90;;;;;;;5.56;100.00;101406.94;4922720;28;20047;-75
2023/10/23 05:10:32;;;;;;;9.80;8.38;;;;;;;5.57;100.00;101399.97;4895955;28;25885;-75
2023/10/23 05:13:00;;;;;;;13.55;10.00;;;;;;;5.57;100.00;101387.78;4898206;29;20535;-76
2023/10/23 05:15:28;;;;;;;10.15;9.02;;;;;;;5.57;100.00;101379.06;4900202;28;20558;-76
2023/10/23 05:17:56;;;;;;;10.00;8.85;;;;;;;5.57;100.00;101379.06;4889486;29;20051;-76
2023/10/23 05:20:24;;;;;;;10.38;8.65;;;;;;;5.55;100.00;101378.13;4904576;29;20048;-75
2023/10/23 05:22:51;;;;;;;10.30;6.28;;;;;;;5.52;100.00;101378.91;4894285;29;20055;-75
2023/10/23 05:25:19;;;;;;;8.30;6.45;;;;;;;5.50;100.00;101379.69;4866748;29;20047;-75
2023/10/23 05:27:46;;;;;;;7.60;6.32;;;;;;;5.46;100.00;101384.84;4910514;29;20051;-76
2023/10/23 05:30:14;;;;;;;7.30;6.22;;;;;;;5.45;100.00;101387.41;4876556;29;20051;-76
2023/10/23 05:32:41;;;;;;;8.23;6.30;;;;;;;5.43;100.00;101384.72;4889204;29;20513;-77
2023/10/23 05:35:09;;;;;;;7.88;7.00;;;;;;;5.42;100.00;101398.63;4904697;29;20051;-76
2023/10/23 05:37:37;;;;;;;10.10;7.90;;;;;;;5.43;100.00;101397.78;4908963;29;20070;-76
2023/10/23 05:40:06;;;;;;;9.07;7.25;;;;;;;5.45;100.00;101398.72;4873106;29;20062;-76
2023/10/23 05:42:34;;;;;;;14.23;7.97;;;;;;;5.46;100.00;101405.75;4890451;29;20048;-76
2023/10/23 05:45:02;;;;;;;15.60;8.23;;;;;;;5.46;100.00;101408.38;4913718;29;20050;-76
2023/10/23 05:47:30;;;;;;;9.75;6.88;;;;;;;5.45;100.00;101414.41;4929217;29;20047;-76
2023/10/23 05:49:57;;;;;;;9.13;6.95;;;;;;;5.43;100.00;101404.75;4930403;29;20070;-76
2023/10/23 05:52:25;;;;;;;10.98;7.68;;;;;;;5.40;100.00;101407.25;4922247;29;20047;-76
2023/10/23 05:54:52;;;;;;;8.35;6.47;;;;;;;5.37;100.00;101422.81;4912892;29;20055;-76
2023/10/23 05:57:20;;;;;;;9.05;6.78;;;;;;;5.35;100.00;101435.88;4867709;29;20051;-75
2023/10/23 05:59:47;;;;;;;10.63;7.47;;;;;;;5.33;100.00;101427.09;4916197;29;20050;-76
2023/10/23 06:02:15;;;;;;;10.48;7.38;;;;;;;5.34;100.00;101430.56;4901709;29;20040;-76
2023/10/23 06:04:44;;;;;;;8.82;7.38;;;;;;;5.34;100.00;101436.69;4919173;29;20065;-75
2023/10/23 06:07:12;;;;;;;8.70;7.38;;;;;;;5.34;100.00;101436.69;4901607;29;20512;-76
2023/10/23 06:09:40;;;;;;;10.07;7.57;;;;;;;5.36;100.00;101436.75;4902114;29;20433;-76
2023/10/23 06:12:09;;;;;;;9.88;7.78;;;;;;;5.37;100.00;101441.13;4875428;29;20051;-75
2023/10/23 06:14:37;;;;;;;8.40;7.32;;;;;;;5.36;100.00;101448.06;4886716;29;20047;-76
2023/10/23 06:17:05;;;;;;;8.25;6.88;;;;;;;5.37;100.00;101447.25;4944637;28;20501;-75
2023/10/23 06:19:33;;;;;;;10.15;7.47;;;;;;;5.36;100.00;101442.84;4940360;28;20051;-74
2023/10/23 06:22:01;;;;;;;7.68;6.75;;;;;;;5.37;100.00;101441.13;4932144;29;20066;-74
2023/10/23 06:24:28;;;;;;;7.88;6.82;;;;;;;5.35;100.00;101445.41;4927482;29;20067;-74
2023/10/23 06:26:56;;;;;;;6.82;6.15;;;;;;;5.33;100.00;101449.69;4879715;29;20048;-74
2023/10/23 06:29:24;;;;;;;6.50;5.80;;;;;;;5.31;100.00;101444.41;4919494;29;20054;-75
2023/10/23 06:31:51;;;;;;;7.10;6.40;;;;;;;5.30;100.00;101450.50;4934157;28;20066;-74
2023/10/23 06:34:19;;;;;;;10.57;6.15;;;;;;;5.27;100.00;101435.59;4919237;28;20489;-75
2023/10/23 06:36:48;;;;;;;8.90;6.78;;;;;;;5.27;100.00;101445.16;4892151;29;20050;-75
2023/10/23 06:39:16;;;;;;;8.55;7.25;;;;;;;5.27;100.00;101450.38;4928822;28;20070;-74
2023/10/23 06:41:43;;;;;;;7.72;6.70;;;;;;;5.27;100.00;101453.00;4874694;29;20054;-74
2023/10/23 06:44:11;;;;;;;6.72;6.07;;;;;;;5.27;100.00;101453.00;4919422;29;20553;-74
2023/10/23 06:46:39;;;;;;;9.30;5.80;;;;;;;5.27;100.00;101461.75;4932184;29;20051;-74
2023/10/23 06:49:07;;;;;;;7.22;6.00;;;;;;;5.29;100.00;101461.75;4916247;29;20055;-75
2023/10/23 06:51:36;;;;;;;10.40;7.03;;;;;;;5.30;100.00;101458.31;4938526;28;20420;-75
2023/10/23 06:54:04;;;;;;;9.52;7.85;;;;;;;5.32;100.00;101458.38;4917253;29;20051;-74
2023/10/23 06:56:31;;;;;;;11.60;8.07;;;;;;;5.37;100.00;101456.78;4910137;29;20054;-74
2023/10/23 06:58:59;;;;;;;14.80;8.85;;;;;;;5.41;100.00;101453.47;4888845;28;20229;-74
2023/10/23 07:01:26;;;;;;;9.63;7.65;;;;;;;5.44;100.00;101450.94;4940262;28;20047;-74
2023/10/23 07:04:10;;;;;;;12.70;9.43;;;;;;;5.46;100.00;101451.88;4936171;29;20401;-74
2023/10/23 07:06:38;;;;;;;11.52;7.72;;;;;;;5.52;100.00;101459.97;4911577;28;20062;-75
2023/10/23 07:09:05;;;;;;;12.85;9.10;;;;;;;5.57;100.00;101460.09;4917948;29;20055;-75
2023/10/23 07:11:32;;;;;;;14.68;8.68;;;;;;;5.62;100.00;101463.75;4898228;29;20051;-73
2023/10/23 07:14:00;;;;;;;15.65;9.70;;;;;;;5.67;100.00;101462.16;4887183;29;20071;-74
2023/10/23 07:16:27;;;;;;;15.10;8.88;;;;;;;5.71;100.00;101468.38;4916551;29;20059;-74
2023/10/23 07:18:54;;;;;;;14.30;8.73;;;;;;;5.75;100.00;101465.94;4938984;28;20043;-75
2023/10/23 07:21:25;;;;;;;16.08;9.25;;;;;;;5.79;100.00;101464.31;4887753;28;20542;-74
2023/10/23 07:23:53;;;;;;;18.25;9.20;;;;;;;5.84;100.00;101471.47;4900026;29;20058;-74
2023/10/23 07:26:21;;;;;;;15.82;9.40;;;;;;;5.89;100.00;101460.28;4925110;29;20056;-74
2023/10/23 07:28:48;;;;;;;14.77;8.93;;;;;;;5.94;100.00;101471.78;4903309;28;20039;-74
2023/10/23 07:31:16;;;;;;;15.95;9.82;;;;;;;5.97;100.00;101469.28;4929020;29;20424;-73
2023/10/23 07:33:44;;;;;;;14.88;10.57;;;;;;;6.01;100.00;101469.44;4921342;29;20051;-74
2023/10/23 07:36:13;;;;;;;12.05;9.07;;;;;;;6.08;100.00;101480.97;4921754;28;20595;-74
2023/10/23 07:38:43;;;;;;;13.20;10.15;;;;;;;6.14;100.00;101478.53;4918807;29;20050;-74
2023/10/23 07:41:12;;;;;;;18.25;9.82;;;;;;;6.20;100.00;101472.59;4914841;29;20055;-74
2023/10/23 07:43:41;;;;;;;15.10;9.95;;;;;;;6.28;100.00;101465.03;4936777;29;20066;-74
2023/10/23 07:46:10;;;;;;;19.67;10.55;;;;;;;6.35;100.00;101472.19;4875516;29;20421;-73
2023/10/23 07:48:45;;;;;;;19.10;11.20;;;;;;;6.41;100.00;101470.66;4901844;29;20051;-74
2023/10/23 07:51:13;;;;;;;16.23;9.48;;;;;;;6.50;100.00;101475.25;4911708;28;20047;-74
2023/10/23 07:53:40;;;;;;;12.30;9.85;;;;;;;6.57;100.00;101469.38;4930731;29;20055;-75
2023/10/23 07:56:08;;;;;;;16.17;10.45;;;;;;;6.66;100.00;101471.38;4937561;28;20405;-75
2023/10/23 07:58:36;;;;;;;16.15;10.30;;;;;;;6.75;100.00;101465.53;4931638;29;20062;-75
2023/10/23 08:01:05;;;;;;;13.23;9.98;;;;;;;6.84;100.00;101476.25;4889381;29;20047;-74
2023/10/23 08:03:34;;;;;;;395.35;36.90;;;;;;;6.94;100.00;101473.06;4914734;29;20078;-75
2023/10/23 08:06:07;;;;;;;16.30;10.32;;;;;;;7.05;100.00;101480.31;4939268;28;20055;-74
2023/10/23 08:08:36;;;;;;;21.38;11.10;;;;;;;7.16;100.00;101481.50;4929990;28;20089;-74
2023/10/23 08:11:05;;;;;;;17.85;11.40;;;;;;;7.28;100.00;101483.56;4930319;29;20501;-74
2023/10/23 08:13:33;;;;;;;13.15;10.02;;;;;;;7.38;100.00;101485.59;4912517;29;20058;-75
2023/10/23 08:16:03;;;;;;;14.55;10.50;;;;;;;7.47;100.00;101482.34;4873602;29;20501;-74
2023/10/23 08:18:31;;;;;;;13.63;9.90;;;;;;;7.57;100.00;101484.34;4921843;29;20070;-74
2023/10/23 08:21:14;;;;;;;18.70;9.85;;;;;;;7.69;100.00;101484.63;4906420;28;20054;-73
2023/10/23 08:23:56;;;;;;;11.98;9.02;;;;;;;7.81;100.00;101474.47;4882749;29;20070;-73
2023/10/23 08:26:24;;;;;;;12.35;9.68;;;;;;;7.93;100.00;101473.88;4934946;29;20050;-74
2023/10/23 08:28:51;;;;;;;11.88;9.32;;;;;;;8.05;100.00;101480.25;4928874;29;20062;-74
2023/10/23 08:31:21;;;;;;;12.07;9.02;;;;;;;8.17;100.00;101475.31;4858538;29;20052;-74
2023/10/23 08:34:05;;;;;;;14.38;8.70;;;;;;;8.32;100.00;101480.03;4911668;28;20051;-74
2023/10/23 08:36:33;;;;;;;10.18;7.55;;;;;;;8.48;100.00;101486.53;4922257;29;20050;-74
2023/10/23 08:39:02;;;;;;;13.15;7.15;;;;;;;8.65;100.00;101481.66;4918519;29;20054;-74
2023/10/23 08:41:31;;;;;;;6.78;6.07;;;;;;;8.84;100.00;101478.53;4905042;29;20063;-75
2023/10/23 08:43:58;;;;;;;9.52;6.70;;;;;;;9.05;100.00;101480.69;4909453;29;20843;-75
2023/10/23 08:46:31;;;;;;;11.77;6.93;;;;;;;9.25;100.00;101488.09;4932538;29;20524;-74
2023/10/23 08:49:02;;;;;;;8.25;6.00;;;;;;;9.46;100.00;101491.13;4871163;29;20048;-74
2023/10/23 08:51:31;;;;;;;7.63;6.60;;;;;;;9.68;100.00;101483.63;4930889;29;20054;-74
2023/10/23 08:54:06;;;;;;;8.63;5.53;;;;;;;9.84;100.00;101483.00;4906179;29;20059;-74
2023/10/23 08:56:41;;;;;;;9.75;5.80;;;;;;;9.99;100.00;101484.13;4932925;28;20039;-74
2023/10/23 08:59:10;;;;;;;9.70;4.85;;;;;;;10.11;100.00;101481.66;4924316;29;20116;-74
2023/10/23 09:01:37;;;;;;;7.55;4.97;;;;;;;10.21;100.00;101477.41;4929132;29;20052;-74
2023/10/23 09:04:06;;;;;;;6.45;4.53;;;;;;;10.30;100.00;101483.75;4884340;29;20505;-74
2023/10/23 09:06:37;;;;;;;6.28;5.05;;;;;;;10.41;100.00;101477.75;4912732;29;20062;-73
2023/10/23 09:09:05;;;;;;;7.82;5.25;;;;;;;10.45;100.00;101483.09;4927199;28;20815;-73
2023/10/23 09:11:46;;;;;;;7.95;5.05;;;;;;;10.47;100.00;101478.72;4901951;29;20066;-73
2023/10/23 09:14:35;;;;;;;7.13;5.00;;;;;;;10.47;100.00;101478.72;4944655;29;20047;-75
2023/10/23 09:17:03;;;;;;;6.03;4.82;;;;;;;10.47;100.00;101477.81;4941238;29;20051;-73
2023/10/23 09:19:36;;;;;;;7.97;5.47;;;;;;;10.46;100.00;101479.56;4887325;29;20059;-73
2023/10/23 09:22:10;;;;;;;6.15;5.45;;;;;;;10.47;100.00;101475.19;4928164;29;20051;-73
2023/10/23 09:24:38;;;;;;;8.20;4.93;;;;;;;10.44;100.00;101486.56;4909570;29;20054;-73
2023/10/23 09:27:05;;;;;;;9.15;5.10;;;;;;;10.44;100.00;101472.53;4901515;29;20043;-74
2023/10/23 09:29:34;;;;;;;6.97;5.43;;;;;;;10.45;100.00;101480.47;4945705;29;20047;-73
2023/10/23 09:32:02;;;;;;;6.55;5.32;;;;;;;10.46;100.00;101478.69;4944541;29;20059;-73
2023/10/23 09:34:31;;;;;;;7.35;5.03;;;;;;;10.51;100.00;101477.03;4831790;29;20043;-73
2023/10/23 09:36:59;;;;;;;7.38;4.80;;;;;;;10.52;100.00;101477.00;4928504;29;20051;-73
2023/10/23 09:39:26;;;;;;;5.50;5.00;;;;;;;10.57;100.00;101478.81;4921001;29;20067;-74
2023/10/23 09:41:55;;;;;;;6.00;5.13;;;;;;;10.60;100.00;101474.47;4904243;29;20562;-73
2023/10/23 09:44:24;;;;;;;6.90;5.63;;;;;;;10.64;100.00;101480.69;4931024;29;20512;-74
2023/10/23 09:46:53;;;;;;;6.45;5.18;;;;;;;10.68;100.00;101471.94;4927067;29;20040;-72
2023/10/23 09:49:22;;;;;;;12.27;5.63;;;;;;;10.74;100.00;101474.69;4886554;29;20050;-74
2023/10/23 09:51:52;;;;;;;5.35;4.85;;;;;;;10.81;100.00;101478.25;4927912;29;20055;-73
2023/10/23 09:54:20;;;;;;;5.90;4.72;;;;;;;10.86;100.00;101471.28;4930924;29;20055;-74
2023/10/23 09:56:54;;;;;;;6.57;4.68;;;;;;;10.89;100.00;101466.94;4914565;28;20043;-74
2023/10/23 09:59:29;;;;;;;6.35;4.80;;;;;;;10.93;100.00;101468.75;4930860;29;20047;-74
2023/10/23 10:02:00;;;;;;;5.30;4.72;;;;;;;10.99;100.00;101477.59;4915928;29;20040;-75
2023/10/23 10:04:33;;;;;;;5.38;4.35;;;;;;;11.03;100.00;101471.50;4888488;28;20053;-73
2023/10/23 10:07:10;;;;;;;8.35;4.60;;;;;;;11.10;100.00;101470.69;4914510;29;20055;-74
2023/10/23 10:09:41;;;;;;;5.28;4.78;;;;;;;11.17;100.00;101458.44;4936469;28;20796;-75
2023/10/23 10:12:09;;;;;;;5.90;4.25;;;;;;;11.23;100.00;101458.53;4912667;29;20047;-73
2023/10/23 10:14:37;;;;;;;9.85;6.57;;;;;;;11.28;100.00;101444.47;4936338;28;20043;-75
2023/10/23 10:17:06;;;;;;;6.32;4.28;;;;;;;11.34;100.00;101443.66;4920836;29;20055;-74
2023/10/23 10:19:35;;;;;;;5.63;4.45;;;;;;;11.40;100.00;101437.56;4935168;28;20047;-74
2023/10/23 10:22:08;;;;;;;5.32;3.92;;;;;;;11.47;100.00;101444.66;4879116;28;20043;-76
2023/10/23 10:24:36;;;;;;;3.88;3.47;;;;;;;11.53;100.00;101439.47;4942635;28;20071;-80
2023/10/23 10:27:05;;;;;;;5.10;3.63;;;;;;;11.58;100.00;101445.66;4903202;29;20495;-74
2023/10/23 10:29:32;;;;;;;6.50;4.45;;;;;;;11.64;100.00;101448.34;4918245;29;20043;-75
2023/10/23 10:32:10;;;;;;;5.53;3.90;;;;;;;11.73;100.00;101449.28;4933358;28;20050;-75
2023/10/23 10:34:46;;;;;;;4.38;3.33;;;;;;;11.80;100.00;101453.75;4938506;28;20054;-76
2023/10/23 10:37:29;;;;;;;4.93;2.80;;;;;;;11.85;100.00;101445.00;4897887;28;20428;-76
2023/10/23 10:39:57;;;;;;;3.22;2.55;;;;;;;11.93;100.00;101447.72;4918326;29;20515;-75
2023/10/23 10:42:28;;;;;;;3.17;2.60;;;;;;;12.01;100.00;101447.78;4923759;28;20512;-75
2023/10/23 10:44:56;;;;;;;3.05;2.60;;;;;;;12.08;100.00;101444.31;4919081;29;20043;-75
2023/10/23 10:47:38;;;;;;;4.22;2.75;;;;;;;12.17;100.00;101454.03;4930192;29;20048;-74
2023/10/23 10:50:06;;;;;;;5.22;3.15;;;;;;;12.24;100.00;101454.09;4929255;28;20055;-74
2023/10/23 10:52:42;;;;;;;4.68;2.80;;;;;;;12.32;100.00;101443.56;4892356;29;20055;-74
2023/10/23 10:55:12;;;;;;;7.53;2.95;;;;;;;12.40;100.00;101457.72;4919531;29;20078;-74
2023/10/23 10:57:41;;;;;;;3.05;2.70;;;;;;;12.44;100.00;101448.91;4935365;29;20051;-74
2023/10/23 11:00:12;;;;;;;5.57;3.15;;;;;;;12.50;100.00;101444.56;4954876;28;20047;-74
2023/10/23 11:02:40;;;;;;;6.10;2.72;;;;;;;12.56;100.00;101439.28;4927192;29;20039;-73
2023/10/23 11:05:09;;;;;;;5.82;2.60;;;;;;;12.60;100.00;101433.13;4921615;29;20417;-73
2023/10/23 11:07:37;;;;;;;3.65;2.33;;;;;;;12.63;100.00;101435.78;4882321;29;20051;-74
2023/10/23 11:10:05;;;;;;;2.65;2.05;;;;;;;12.66;100.00;101433.16;4924143;29;20054;-73
2023/10/23 11:12:33;;;;;;;3.75;1.90;;;;;;;12.69;100.00;101427.88;4929104;29;20493;-74
2023/10/23 11:15:00;;;;;;;2.92;2.28;;;;;;;12.71;100.00;101431.41;4895039;28;20051;-75
2023/10/23 11:17:28;;;;;;;3.38;2.60;;;;;;;12.74;100.00;101427.88;4939863;29;20536;-74
2023/10/23 11:19:56;;;;;;;4.68;2.30;;;;;;;12.76;100.00;101423.47;4929604;29;20040;-74
2023/10/23 11:22:25;;;;;;;3.13;2.08;;;;;;;12.78;100.00;101427.00;4886905;28;21017;-74
2023/10/23 11:24:53;;;;;;;2.92;1.75;;;;;;;12.79;100.00;101424.38;4907233;29;20405;-73
2023/10/23 11:27:20;;;;;;;4.00;2.72;;;;;;;12.84;100.00;101419.13;4921890;29;20047;-73